sensor_id;sensor_type;location;lat;lon;timestamp;temperature;humidity
9640;DHT22;51745;50.872;4.732;2022-07-17T00:02:18;15.50;99.90
9640;DHT22;51745;50.872;4.732;2022-07-17T00:05:07;14.10;99.90
9640;DHT22;51745;50.872;4.732;2022-07-17T00:07:57;14.20;99.90
9640;DHT22;51745;50.872;4.732;2022-07-17T00:10:45;14.40;99.90
9640;DHT22;51745;50.872;4.732;2022-07-17T00:13:33;14.30;99.90
9640;DHT22;51745;50.872;4.732;2022-07-17T00:16:29;14.50;99.90
9640;DHT22;51745;50.872;4.732;2022-07-17T00:19:17;14.50;99.90
9640;DHT22;51745;50.872;4.732;2022-07-17T00:22:04;16.20;99.90
9640;DHT22;51745;50.872;4.732;2022-07-17T00:24:52;14.40;99.90
9640;DHT22;51745;50.872;4.732;2022-07-17T00:27:40;13.40;99.90
9640;DHT22;51745;50.872;4.732;2022-07-17T00:30:28;14.20;99.90
9640;DHT22;51745;50.872;4.732;2022-07-17T00:33:17;14.20;99.90
9640;DHT22;51745;50.872;4.732;2022-07-17T00:36:05;14.10;99.90
9640;DHT22;51745;50.872;4.732;2022-07-17T00:38:53;14.00;99.90
9640;DHT22;51745;50.872;4.732;2022-07-17T00:41:40;13.90;99.90
9640;DHT22;51745;50.872;4.732;2022-07-17T00:44:32;13.80;99.90
9640;DHT22;51745;50.872;4.732;2022-07-17T00:47:20;13.80;99.90
9640;DHT22;51745;50.872;4.732;2022-07-17T00:50:10;13.80;99.90
9640;DHT22;51745;50.872;4.732;2022-07-17T00:52:58;13.80;99.90
9640;DHT22;51745;50.872;4.732;2022-07-17T00:55:46;13.90;99.90
9640;DHT22;51745;50.872;4.732;2022-07-17T00:58:35;13.70;99.90
9640;DHT22;51745;50.872;4.732;2022-07-17T01:01:24;13.70;99.90
9640;DHT22;51745;50.872;4.732;2022-07-17T01:04:13;13.70;99.90
9640;DHT22;51745;50.872;4.732;2022-07-17T01:07:02;13.60;99.90
9640;DHT22;51745;50.872;4.732;2022-07-17T01:09:50;13.70;99.90
9640;DHT22;51745;50.872;4.732;2022-07-17T01:12:38;13.60;99.90
9640;DHT22;51745;50.872;4.732;2022-07-17T01:15:27;13.50;99.90
9640;DHT22;51745;50.872;4.732;2022-07-17T01:18:15;13.50;99.90
9640;DHT22;51745;50.872;4.732;2022-07-17T01:21:04;13.50;99.90
9640;DHT22;51745;50.872;4.732;2022-07-17T01:23:52;13.50;99.90
9640;DHT22;51745;50.872;4.732;2022-07-17T01:26:40;13.50;99.90
9640;DHT22;51745;50.872;4.732;2022-07-17T01:29:29;13.40;99.90
9640;DHT22;51745;50.872;4.732;2022-07-17T01:32:16;13.40;99.90
9640;DHT22;51745;50.872;4.732;2022-07-17T01:35:14;13.40;99.90
9640;DHT22;51745;50.872;4.732;2022-07-17T01:38:32;13.40;99.90
9640;DHT22;51745;50.872;4.732;2022-07-17T01:41:20;13.50;99.90
9640;DHT22;51745;50.872;4.732;2022-07-17T01:44:07;13.40;99.90
9640;DHT22;51745;50.872;4.732;2022-07-17T01:46:56;13.40;99.90
9640;DHT22;51745;50.872;4.732;2022-07-17T01:49:44;13.40;99.90
9640;DHT22;51745;50.872;4.732;2022-07-17T01:52:34;13.30;99.90
9640;DHT22;51745;50.872;4.732;2022-07-17T01:55:25;13.30;99.90
9640;DHT22;51745;50.872;4.732;2022-07-17T01:58:13;13.30;99.90
9640;DHT22;51745;50.872;4.732;2022-07-17T02:01:01;13.20;99.90
9640;DHT22;51745;50.872;4.732;2022-07-17T02:03:49;12.40;99.90
9640;DHT22;51745;50.872;4.732;2022-07-17T02:06:37;13.20;99.90
9640;DHT22;51745;50.872;4.732;2022-07-17T02:09:25;13.10;99.90
9640;DHT22;51745;50.872;4.732;2022-07-17T02:12:14;13.10;99.90
9640;DHT22;51745;50.872;4.732;2022-07-17T02:15:02;13.20;99.90
9640;DHT22;51745;50.872;4.732;2022-07-17T02:17:51;13.10;99.90
9640;DHT22;51745;50.872;4.732;2022-07-17T02:20:41;12.90;99.90
9640;DHT22;51745;50.872;4.732;2022-07-17T02:23:34;12.80;99.90
9640;DHT22;51745;50.872;4.732;2022-07-17T02:26:23;13.00;99.90
9640;DHT22;51745;50.872;4.732;2022-07-17T02:29:13;12.80;99.90
9640;DHT22;51745;50.872;4.732;2022-07-17T02:32:00;12.70;99.90
9640;DHT22;51745;50.872;4.732;2022-07-17T02:34:49;12.80;99.90
9640;DHT22;51745;50.872;4.732;2022-07-17T02:37:38;12.70;99.90
9640;DHT22;51745;50.872;4.732;2022-07-17T02:40:25;12.90;99.90
9640;DHT22;51745;50.872;4.732;2022-07-17T02:43:13;12.70;99.90
9640;DHT22;51745;50.872;4.732;2022-07-17T02:46:03;12.70;99.90
9640;DHT22;51745;50.872;4.732;2022-07-17T02:48:51;12.70;99.90
9640;DHT22;51745;50.872;4.732;2022-07-17T02:51:39;12.70;99.90
9640;DHT22;51745;50.872;4.732;2022-07-17T02:54:27;12.70;99.90
9640;DHT22;51745;50.872;4.732;2022-07-17T02:57:14;12.70;99.90
9640;DHT22;51745;50.872;4.732;2022-07-17T03:00:03;12.60;99.90
9640;DHT22;51745;50.872;4.732;2022-07-17T03:02:52;12.60;99.90
9640;DHT22;51745;50.872;4.732;2022-07-17T03:05:41;12.60;99.90
9640;DHT22;51745;50.872;4.732;2022-07-17T03:08:28;13.70;99.90
9640;DHT22;51745;50.872;4.732;2022-07-17T03:11:16;12.80;99.90
9640;DHT22;51745;50.872;4.732;2022-07-17T03:14:04;12.50;99.90
9640;DHT22;51745;50.872;4.732;2022-07-17T03:16:52;12.40;99.90
9640;DHT22;51745;50.872;4.732;2022-07-17T03:19:45;12.30;99.90
9640;DHT22;51745;50.872;4.732;2022-07-17T03:22:36;12.30;99.90
9640;DHT22;51745;50.872;4.732;2022-07-17T03:25:25;12.30;99.90
9640;DHT22;51745;50.872;4.732;2022-07-17T03:28:13;12.30;99.90
9640;DHT22;51745;50.872;4.732;2022-07-17T03:31:00;12.30;99.90
9640;DHT22;51745;50.872;4.732;2022-07-17T03:33:49;12.20;99.90
9640;DHT22;51745;50.872;4.732;2022-07-17T03:36:38;12.20;99.90
9640;DHT22;51745;50.872;4.732;2022-07-17T03:39:26;12.20;99.90
9640;DHT22;51745;50.872;4.732;2022-07-17T03:42:13;12.20;99.90
9640;DHT22;51745;50.872;4.732;2022-07-17T03:45:01;12.10;99.90
9640;DHT22;51745;50.872;4.732;2022-07-17T03:47:48;12.10;99.90
9640;DHT22;51745;50.872;4.732;2022-07-17T03:50:36;12.00;99.90
9640;DHT22;51745;50.872;4.732;2022-07-17T03:53:25;12.10;99.90
9640;DHT22;51745;50.872;4.732;2022-07-17T03:56:13;12.00;99.90
9640;DHT22;51745;50.872;4.732;2022-07-17T03:59:01;12.10;99.90
9640;DHT22;51745;50.872;4.732;2022-07-17T04:01:48;12.10;99.90
9640;DHT22;51745;50.872;4.732;2022-07-17T04:04:36;12.10;99.90
9640;DHT22;51745;50.872;4.732;2022-07-17T04:07:23;12.10;99.90
9640;DHT22;51745;50.872;4.732;2022-07-17T04:10:15;12.10;99.90
9640;DHT22;51745;50.872;4.732;2022-07-17T04:13:03;12.20;99.90
9640;DHT22;51745;50.872;4.732;2022-07-17T04:15:51;12.20;99.90
9640;DHT22;51745;50.872;4.732;2022-07-17T04:18:41;12.20;99.90
9640;DHT22;51745;50.872;4.732;2022-07-17T04:21:29;12.20;99.90
9640;DHT22;51745;50.872;4.732;2022-07-17T04:24:17;12.20;99.90
9640;DHT22;51745;50.872;4.732;2022-07-17T04:27:06;12.20;99.90
9640;DHT22;51745;50.872;4.732;2022-07-17T04:29:54;12.20;99.90
9640;DHT22;51745;50.872;4.732;2022-07-17T04:32:42;12.30;99.90
9640;DHT22;51745;50.872;4.732;2022-07-17T04:35:30;12.30;99.90
9640;DHT22;51745;50.872;4.732;2022-07-17T04:38:17;12.40;99.90
9640;DHT22;51745;50.872;4.732;2022-07-17T04:41:06;12.40;99.90
9640;DHT22;51745;50.872;4.732;2022-07-17T04:43:55;12.40;99.90
9640;DHT22;51745;50.872;4.732;2022-07-17T04:46:43;13.80;99.90
9640;DHT22;51745;50.872;4.732;2022-07-17T04:49:31;12.60;99.90
9640;DHT22;51745;50.872;4.732;2022-07-17T04:52:19;12.70;99.90
9640;DHT22;51745;50.872;4.732;2022-07-17T04:55:07;12.80;99.90
9640;DHT22;51745;50.872;4.732;2022-07-17T04:57:55;12.90;99.90
9640;DHT22;51745;50.872;4.732;2022-07-17T05:00:45;12.90;99.90
9640;DHT22;51745;50.872;4.732;2022-07-17T05:03:33;14.30;99.90
9640;DHT22;51745;50.872;4.732;2022-07-17T05:06:21;13.00;99.90
9640;DHT22;51745;50.872;4.732;2022-07-17T05:09:09;13.10;99.90
9640;DHT22;51745;50.872;4.732;2022-07-17T05:11:57;13.10;99.90
9640;DHT22;51745;50.872;4.732;2022-07-17T05:14:45;13.10;99.90
9640;DHT22;51745;50.872;4.732;2022-07-17T05:17:34;13.30;99.90
9640;DHT22;51745;50.872;4.732;2022-07-17T05:20:22;13.40;99.90
9640;DHT22;51745;50.872;4.732;2022-07-17T05:23:09;13.40;99.90
9640;DHT22;51745;50.872;4.732;2022-07-17T05:25:57;13.50;99.90
9640;DHT22;51745;50.872;4.732;2022-07-17T05:28:45;15.40;99.90
9640;DHT22;51745;50.872;4.732;2022-07-17T05:31:32;14.00;99.90
9640;DHT22;51745;50.872;4.732;2022-07-17T05:34:21;14.10;99.90
9640;DHT22;51745;50.872;4.732;2022-07-17T05:37:13;14.10;99.90
9640;DHT22;51745;50.872;4.732;2022-07-17T05:40:00;14.10;99.90
9640;DHT22;51745;50.872;4.732;2022-07-17T05:42:48;14.10;99.90
9640;DHT22;51745;50.872;4.732;2022-07-17T05:45:35;14.10;99.90
9640;DHT22;51745;50.872;4.732;2022-07-17T05:48:25;14.10;99.90
9640;DHT22;51745;50.872;4.732;2022-07-17T05:51:14;14.10;99.90
9640;DHT22;51745;50.872;4.732;2022-07-17T05:54:10;14.10;99.90
9640;DHT22;51745;50.872;4.732;2022-07-17T05:56:57;14.20;99.90
9640;DHT22;51745;50.872;4.732;2022-07-17T05:59:45;14.20;99.90
9640;DHT22;51745;50.872;4.732;2022-07-17T06:02:32;14.20;99.90
9640;DHT22;51745;50.872;4.732;2022-07-17T06:05:20;14.30;99.90
9640;DHT22;51745;50.872;4.732;2022-07-17T06:08:10;14.40;99.90
9640;DHT22;51745;50.872;4.732;2022-07-17T06:10:58;14.40;99.90
9640;DHT22;51745;50.872;4.732;2022-07-17T06:13:45;14.50;99.90
9640;DHT22;51745;50.872;4.732;2022-07-17T06:16:34;16.00;99.90
9640;DHT22;51745;50.872;4.732;2022-07-17T06:19:22;14.80;99.90
9640;DHT22;51745;50.872;4.732;2022-07-17T06:22:11;15.00;99.90
9640;DHT22;51745;50.872;4.732;2022-07-17T06:25:00;15.20;99.90
9640;DHT22;51745;50.872;4.732;2022-07-17T06:27:48;15.30;99.90
9640;DHT22;51745;50.872;4.732;2022-07-17T06:30:35;15.40;99.90
9640;DHT22;51745;50.872;4.732;2022-07-17T06:33:23;15.50;99.90
9640;DHT22;51745;50.872;4.732;2022-07-17T06:36:10;15.60;99.90
9640;DHT22;51745;50.872;4.732;2022-07-17T06:38:58;15.70;99.90
9640;DHT22;51745;50.872;4.732;2022-07-17T06:41:47;15.80;99.90
9640;DHT22;51745;50.872;4.732;2022-07-17T06:44:35;15.80;99.90
9640;DHT22;51745;50.872;4.732;2022-07-17T06:47:22;15.90;99.90
9640;DHT22;51745;50.872;4.732;2022-07-17T06:50:11;16.00;99.90
9640;DHT22;51745;50.872;4.732;2022-07-17T06:52:58;16.10;99.90
9640;DHT22;51745;50.872;4.732;2022-07-17T06:55:46;16.00;99.90
9640;DHT22;51745;50.872;4.732;2022-07-17T06:58:36;16.20;99.90
9640;DHT22;51745;50.872;4.732;2022-07-17T07:01:23;16.30;99.90
9640;DHT22;51745;50.872;4.732;2022-07-17T07:04:13;16.40;99.90
9640;DHT22;51745;50.872;4.732;2022-07-17T07:07:01;16.50;99.90
9640;DHT22;51745;50.872;4.732;2022-07-17T07:09:49;16.70;99.90
9640;DHT22;51745;50.872;4.732;2022-07-17T07:12:37;16.80;99.90
9640;DHT22;51745;50.872;4.732;2022-07-17T07:15:26;16.80;99.90
9640;DHT22;51745;50.872;4.732;2022-07-17T07:18:13;16.90;99.90
9640;DHT22;51745;50.872;4.732;2022-07-17T07:21:05;17.00;99.90
9640;DHT22;51745;50.872;4.732;2022-07-17T07:23:53;17.10;99.90
9640;DHT22;51745;50.872;4.732;2022-07-17T07:26:41;17.20;99.90
9640;DHT22;51745;50.872;4.732;2022-07-17T07:29:29;17.30;99.90
9640;DHT22;51745;50.872;4.732;2022-07-17T07:32:18;17.30;99.90
9640;DHT22;51745;50.872;4.732;2022-07-17T07:35:07;17.50;99.90
9640;DHT22;51745;50.872;4.732;2022-07-17T07:37:55;17.70;99.90
9640;DHT22;51745;50.872;4.732;2022-07-17T07:40:47;17.90;99.90
9640;DHT22;51745;50.872;4.732;2022-07-17T07:43:35;18.30;99.90
9640;DHT22;51745;50.872;4.732;2022-07-17T07:46:27;18.30;99.90
9640;DHT22;51745;50.872;4.732;2022-07-17T07:49:19;19.60;99.90
9640;DHT22;51745;50.872;4.732;2022-07-17T07:52:06;18.50;99.90
9640;DHT22;51745;50.872;4.732;2022-07-17T07:54:56;18.60;99.90
9640;DHT22;51745;50.872;4.732;2022-07-17T07:57:44;18.80;99.90
9640;DHT22;51745;50.872;4.732;2022-07-17T08:00:31;18.70;99.90
9640;DHT22;51745;50.872;4.732;2022-07-17T08:03:19;18.70;99.90
9640;DHT22;51745;50.872;4.732;2022-07-17T08:06:11;18.90;99.90
9640;DHT22;51745;50.872;4.732;2022-07-17T08:09:03;19.00;99.90
9640;DHT22;51745;50.872;4.732;2022-07-17T08:11:51;19.00;99.90
9640;DHT22;51745;50.872;4.732;2022-07-17T08:14:39;19.00;99.90
9640;DHT22;51745;50.872;4.732;2022-07-17T08:17:28;19.10;99.90
9640;DHT22;51745;50.872;4.732;2022-07-17T08:20:18;19.10;99.90
9640;DHT22;51745;50.872;4.732;2022-07-17T08:23:10;19.40;99.90
9640;DHT22;51745;50.872;4.732;2022-07-17T08:26:01;19.30;99.90
9640;DHT22;51745;50.872;4.732;2022-07-17T08:28:55;19.50;99.90
9640;DHT22;51745;50.872;4.732;2022-07-17T08:31:46;19.60;99.90
9640;DHT22;51745;50.872;4.732;2022-07-17T08:34:41;19.60;99.90
9640;DHT22;51745;50.872;4.732;2022-07-17T08:37:43;19.60;99.90
9640;DHT22;51745;50.872;4.732;2022-07-17T08:40:33;19.70;99.90
9640;DHT22;51745;50.872;4.732;2022-07-17T08:43:21;18.30;99.90
9640;DHT22;51745;50.872;4.732;2022-07-17T08:46:12;20.00;99.90
9640;DHT22;51745;50.872;4.732;2022-07-17T08:49:00;20.00;99.90
9640;DHT22;51745;50.872;4.732;2022-07-17T08:51:51;19.80;99.90
9640;DHT22;51745;50.872;4.732;2022-07-17T08:54:42;20.20;99.90
9640;DHT22;51745;50.872;4.732;2022-07-17T08:57:38;20.20;99.90
9640;DHT22;51745;50.872;4.732;2022-07-17T09:00:31;20.20;99.90
9640;DHT22;51745;50.872;4.732;2022-07-17T09:03:23;20.30;99.90
9640;DHT22;51745;50.872;4.732;2022-07-17T09:06:28;20.40;99.90
9640;DHT22;51745;50.872;4.732;2022-07-17T09:09:16;20.40;99.90
9640;DHT22;51745;50.872;4.732;2022-07-17T09:12:04;20.40;99.90
9640;DHT22;51745;50.872;4.732;2022-07-17T09:14:58;20.50;99.90
9640;DHT22;51745;50.872;4.732;2022-07-17T09:17:52;20.60;99.90
9640;DHT22;51745;50.872;4.732;2022-07-17T09:20:46;20.50;99.90
9640;DHT22;51745;50.872;4.732;2022-07-17T09:23:34;20.50;99.90
9640;DHT22;51745;50.872;4.732;2022-07-17T09:26:22;20.40;99.90
9640;DHT22;51745;50.872;4.732;2022-07-17T09:29:20;20.90;99.90
9640;DHT22;51745;50.872;4.732;2022-07-17T09:32:19;20.60;99.90
9640;DHT22;51745;50.872;4.732;2022-07-17T09:35:13;20.60;99.90
9640;DHT22;51745;50.872;4.732;2022-07-17T09:38:26;20.00;99.90
9640;DHT22;51745;50.872;4.732;2022-07-17T09:41:15;20.70;99.90
9640;DHT22;51745;50.872;4.732;2022-07-17T09:44:05;21.10;99.90
9640;DHT22;51745;50.872;4.732;2022-07-17T09:46:52;21.00;99.90
9640;DHT22;51745;50.872;4.732;2022-07-17T09:50:17;21.80;99.90
9640;DHT22;51745;50.872;4.732;2022-07-17T09:53:20;21.30;99.90
9640;DHT22;51745;50.872;4.732;2022-07-17T09:56:32;21.40;99.90
9640;DHT22;51745;50.872;4.732;2022-07-17T09:59:42;21.40;99.90
9640;DHT22;51745;50.872;4.732;2022-07-17T10:02:33;21.50;99.90
9640;DHT22;51745;50.872;4.732;2022-07-17T10:05:28;21.60;99.90
9640;DHT22;51745;50.872;4.732;2022-07-17T10:08:22;21.80;99.90
9640;DHT22;51745;50.872;4.732;2022-07-17T10:11:10;21.80;99.90
9640;DHT22;51745;50.872;4.732;2022-07-17T10:14:02;21.90;99.90
9640;DHT22;51745;50.872;4.732;2022-07-17T10:17:13;22.10;99.90
9640;DHT22;51745;50.872;4.732;2022-07-17T10:20:11;22.50;99.90
9640;DHT22;51745;50.872;4.732;2022-07-17T10:23:14;22.60;99.90
9640;DHT22;51745;50.872;4.732;2022-07-17T10:26:11;22.70;99.90
9640;DHT22;51745;50.872;4.732;2022-07-17T10:34:25;22.00;99.90
9640;DHT22;51745;50.872;4.732;2022-07-17T10:37:26;21.30;99.90
9640;DHT22;51745;50.872;4.732;2022-07-17T10:40:19;22.60;99.90
9640;DHT22;51745;50.872;4.732;2022-07-17T10:43:15;22.60;99.90
9640;DHT22;51745;50.872;4.732;2022-07-17T10:46:05;22.80;99.90
9640;DHT22;51745;50.872;4.732;2022-07-17T10:53:46;23.10;99.90
9640;DHT22;51745;50.872;4.732;2022-07-17T10:56:36;23.00;99.90
9640;DHT22;51745;50.872;4.732;2022-07-17T10:59:29;23.10;99.90
9640;DHT22;51745;50.872;4.732;2022-07-17T11:02:17;23.40;99.90
9640;DHT22;51745;50.872;4.732;2022-07-17T11:05:25;24.00;99.90
9640;DHT22;51745;50.872;4.732;2022-07-17T11:08:13;23.60;99.90
9640;DHT22;51745;50.872;4.732;2022-07-17T11:11:03;23.50;99.90
9640;DHT22;51745;50.872;4.732;2022-07-17T11:14:10;23.70;99.90
9640;DHT22;51745;50.872;4.732;2022-07-17T11:17:02;24.10;99.80
9640;DHT22;51745;50.872;4.732;2022-07-17T11:19:50;23.60;99.30
9640;DHT22;51745;50.872;4.732;2022-07-17T11:22:39;23.50;99.60
9640;DHT22;51745;50.872;4.732;2022-07-17T11:25:26;23.40;99.60
9640;DHT22;51745;50.872;4.732;2022-07-17T11:28:14;23.80;98.90
9640;DHT22;51745;50.872;4.732;2022-07-17T11:31:04;23.90;98.20
9640;DHT22;51745;50.872;4.732;2022-07-17T11:33:54;24.10;96.40
9640;DHT22;51745;50.872;4.732;2022-07-17T11:36:44;24.40;97.20
9640;DHT22;51745;50.872;4.732;2022-07-17T11:39:38;25.50;98.70
9640;DHT22;51745;50.872;4.732;2022-07-17T11:42:28;22.90;97.80
9640;DHT22;51745;50.872;4.732;2022-07-17T11:45:28;24.60;97.10
9640;DHT22;51745;50.872;4.732;2022-07-17T11:48:23;24.60;96.60
9640;DHT22;51745;50.872;4.732;2022-07-17T11:51:11;24.80;97.80
9640;DHT22;51745;50.872;4.732;2022-07-17T11:54:03;24.00;99.40
9640;DHT22;51745;50.872;4.732;2022-07-17T11:56:58;24.50;98.70
9640;DHT22;51745;50.872;4.732;2022-07-17T12:00:04;24.60;97.70
9640;DHT22;51745;50.872;4.732;2022-07-17T12:03:02;24.90;97.20
9640;DHT22;51745;50.872;4.732;2022-07-17T12:05:53;25.00;97.20
9640;DHT22;51745;50.872;4.732;2022-07-17T12:08:49;26.70;97.10
9640;DHT22;51745;50.872;4.732;2022-07-17T12:11:47;24.70;95.50
9640;DHT22;51745;50.872;4.732;2022-07-17T12:18:29;24.60;96.90
9640;DHT22;51745;50.872;4.732;2022-07-17T12:21:32;22.70;94.00
9640;DHT22;51745;50.872;4.732;2022-07-17T12:24:25;24.90;95.90
9640;DHT22;51745;50.872;4.732;2022-07-17T12:27:15;25.30;94.70
9640;DHT22;51745;50.872;4.732;2022-07-17T12:34:49;25.30;94.00
9640;DHT22;51745;50.872;4.732;2022-07-17T12:37:45;25.30;93.70
9640;DHT22;51745;50.872;4.732;2022-07-17T12:40:36;25.20;94.10
9640;DHT22;51745;50.872;4.732;2022-07-17T12:43:23;25.30;93.30
9640;DHT22;51745;50.872;4.732;2022-07-17T12:46:15;25.30;93.00
9640;DHT22;51745;50.872;4.732;2022-07-17T12:49:04;25.20;92.80
9640;DHT22;51745;50.872;4.732;2022-07-17T12:51:52;25.40;91.50
9640;DHT22;51745;50.872;4.732;2022-07-17T12:54:42;26.30;91.40
9640;DHT22;51745;50.872;4.732;2022-07-17T12:57:31;25.70;91.10
9640;DHT22;51745;50.872;4.732;2022-07-17T13:00:21;25.80;90.10
9640;DHT22;51745;50.872;4.732;2022-07-17T13:03:08;25.60;88.80
9640;DHT22;51745;50.872;4.732;2022-07-17T13:05:56;25.40;86.80
9640;DHT22;51745;50.872;4.732;2022-07-17T13:08:45;25.60;85.20
9640;DHT22;51745;50.872;4.732;2022-07-17T13:11:35;25.80;87.00
9640;DHT22;51745;50.872;4.732;2022-07-17T13:14:23;26.00;86.80
9640;DHT22;51745;50.872;4.732;2022-07-17T13:17:10;26.30;84.00
9640;DHT22;51745;50.872;4.732;2022-07-17T13:20:07;26.30;83.00
9640;DHT22;51745;50.872;4.732;2022-07-17T13:22:56;26.40;83.40
9640;DHT22;51745;50.872;4.732;2022-07-17T13:25:45;26.10;82.00
9640;DHT22;51745;50.872;4.732;2022-07-17T13:28:41;26.10;82.60
9640;DHT22;51745;50.872;4.732;2022-07-17T13:31:31;26.10;84.40
9640;DHT22;51745;50.872;4.732;2022-07-17T13:34:21;26.10;82.70
9640;DHT22;51745;50.872;4.732;2022-07-17T13:37:17;25.50;83.10
9640;DHT22;51745;50.872;4.732;2022-07-17T13:40:05;26.50;83.80
9640;DHT22;51745;50.872;4.732;2022-07-17T13:42:53;27.60;83.00
9640;DHT22;51745;50.872;4.732;2022-07-17T13:45:46;25.80;82.00
9640;DHT22;51745;50.872;4.732;2022-07-17T13:48:34;26.80;79.30
9640;DHT22;51745;50.872;4.732;2022-07-17T13:51:23;26.70;80.80
9640;DHT22;51745;50.872;4.732;2022-07-17T13:54:16;26.70;81.20
9640;DHT22;51745;50.872;4.732;2022-07-17T13:57:03;26.70;81.70
9640;DHT22;51745;50.872;4.732;2022-07-17T13:59:54;26.50;82.30
9640;DHT22;51745;50.872;4.732;2022-07-17T14:02:45;26.60;80.50
9640;DHT22;51745;50.872;4.732;2022-07-17T14:05:52;26.70;79.10
9640;DHT22;51745;50.872;4.732;2022-07-17T14:08:40;26.50;78.00
9640;DHT22;51745;50.872;4.732;2022-07-17T14:11:31;26.40;76.90
9640;DHT22;51745;50.872;4.732;2022-07-17T14:14:39;26.10;76.40
9640;DHT22;51745;50.872;4.732;2022-07-17T14:17:29;28.30;77.30
9640;DHT22;51745;50.872;4.732;2022-07-17T14:20:19;26.80;75.90
9640;DHT22;51745;50.872;4.732;2022-07-17T14:23:07;26.70;74.10
9640;DHT22;51745;50.872;4.732;2022-07-17T14:25:54;27.20;75.80
9640;DHT22;51745;50.872;4.732;2022-07-17T14:28:44;25.60;74.20
9640;DHT22;51745;50.872;4.732;2022-07-17T14:31:35;26.90;75.30
9640;DHT22;51745;50.872;4.732;2022-07-17T14:34:29;26.90;73.20
9640;DHT22;51745;50.872;4.732;2022-07-17T14:37:22;26.70;74.40
9640;DHT22;51745;50.872;4.732;2022-07-17T14:40:13;26.90;73.60
9640;DHT22;51745;50.872;4.732;2022-07-17T14:43:01;26.00;75.50
9640;DHT22;51745;50.872;4.732;2022-07-17T14:45:55;27.00;75.50
9640;DHT22;51745;50.872;4.732;2022-07-17T14:48:51;27.20;75.20
9640;DHT22;51745;50.872;4.732;2022-07-17T14:51:39;27.10;76.40
9640;DHT22;51745;50.872;4.732;2022-07-17T14:54:46;27.50;77.10
9640;DHT22;51745;50.872;4.732;2022-07-17T14:57:36;28.20;74.20
9640;DHT22;51745;50.872;4.732;2022-07-17T15:00:28;27.30;72.60
9640;DHT22;51745;50.872;4.732;2022-07-17T15:03:16;27.30;73.20
9640;DHT22;51745;50.872;4.732;2022-07-17T15:06:14;27.10;73.00
9640;DHT22;51745;50.872;4.732;2022-07-17T15:09:08;27.00;71.00
9640;DHT22;51745;50.872;4.732;2022-07-17T15:12:06;27.00;71.80
9640;DHT22;51745;50.872;4.732;2022-07-17T15:15:00;26.90;71.60
9640;DHT22;51745;50.872;4.732;2022-07-17T15:17:54;25.80;70.60
9640;DHT22;51745;50.872;4.732;2022-07-17T15:20:46;28.30;70.40
9640;DHT22;51745;50.872;4.732;2022-07-17T15:23:35;27.20;69.00
9640;DHT22;51745;50.872;4.732;2022-07-17T15:26:24;27.50;65.80
9640;DHT22;51745;50.872;4.732;2022-07-17T15:29:18;27.40;68.00
9640;DHT22;51745;50.872;4.732;2022-07-17T15:32:07;27.50;69.30
9640;DHT22;51745;50.872;4.732;2022-07-17T15:34:59;27.40;65.20
9640;DHT22;51745;50.872;4.732;2022-07-17T15:37:54;27.50;65.70
9640;DHT22;51745;50.872;4.732;2022-07-17T15:40:43;27.70;67.20
9640;DHT22;51745;50.872;4.732;2022-07-17T15:43:33;27.90;67.40
9640;DHT22;51745;50.872;4.732;2022-07-17T15:46:27;27.90;65.40
9640;DHT22;51745;50.872;4.732;2022-07-17T15:49:16;27.50;63.40
9640;DHT22;51745;50.872;4.732;2022-07-17T15:52:06;27.20;64.60
9640;DHT22;51745;50.872;4.732;2022-07-17T15:54:57;27.10;64.80
9640;DHT22;51745;50.872;4.732;2022-07-17T15:57:45;27.00;64.00
9640;DHT22;51745;50.872;4.732;2022-07-17T16:00:40;26.10;64.00
9640;DHT22;51745;50.872;4.732;2022-07-17T16:03:34;27.40;64.60
9640;DHT22;51745;50.872;4.732;2022-07-17T16:06:32;27.30;63.80
9640;DHT22;51745;50.872;4.732;2022-07-17T16:09:22;27.60;66.00
9640;DHT22;51745;50.872;4.732;2022-07-17T16:12:11;27.40;64.30
9640;DHT22;51745;50.872;4.732;2022-07-17T16:15:12;27.40;67.20
9640;DHT22;51745;50.872;4.732;2022-07-17T16:18:05;27.30;67.60
9640;DHT22;51745;50.872;4.732;2022-07-17T16:20:56;27.40;67.70
9640;DHT22;51745;50.872;4.732;2022-07-17T16:23:46;27.50;68.00
9640;DHT22;51745;50.872;4.732;2022-07-17T16:26:39;27.50;69.60
9640;DHT22;51745;50.872;4.732;2022-07-17T16:29:29;27.30;66.70
9640;DHT22;51745;50.872;4.732;2022-07-17T16:32:18;27.30;71.50
9640;DHT22;51745;50.872;4.732;2022-07-17T16:35:06;27.30;71.90
9640;DHT22;51745;50.872;4.732;2022-07-17T16:37:59;26.70;69.60
9640;DHT22;51745;50.872;4.732;2022-07-17T16:40:47;27.20;70.00
9640;DHT22;51745;50.872;4.732;2022-07-17T16:43:35;27.30;71.70
9640;DHT22;51745;50.872;4.732;2022-07-17T16:46:24;27.30;70.40
9640;DHT22;51745;50.872;4.732;2022-07-17T16:49:13;27.20;71.50
9640;DHT22;51745;50.872;4.732;2022-07-17T16:52:03;26.40;70.20
9640;DHT22;51745;50.872;4.732;2022-07-17T16:54:52;27.30;70.70
9640;DHT22;51745;50.872;4.732;2022-07-17T16:57:40;27.00;69.30
9640;DHT22;51745;50.872;4.732;2022-07-17T17:00:28;27.30;68.60
9640;DHT22;51745;50.872;4.732;2022-07-17T17:03:20;27.10;68.90
9640;DHT22;51745;50.872;4.732;2022-07-17T17:06:08;27.20;69.10
9640;DHT22;51745;50.872;4.732;2022-07-17T17:09:06;27.40;69.20
9640;DHT22;51745;50.872;4.732;2022-07-17T17:12:08;27.00;68.00
9640;DHT22;51745;50.872;4.732;2022-07-17T17:15:01;27.30;68.60
9640;DHT22;51745;50.872;4.732;2022-07-17T17:18:03;27.00;68.00
9640;DHT22;51745;50.872;4.732;2022-07-17T17:20:52;26.90;70.30
9640;DHT22;51745;50.872;4.732;2022-07-17T17:23:40;27.10;72.10
9640;DHT22;51745;50.872;4.732;2022-07-17T17:26:29;27.30;72.40
9640;DHT22;51745;50.872;4.732;2022-07-17T17:29:23;27.40;68.90
9640;DHT22;51745;50.872;4.732;2022-07-17T17:32:10;27.30;67.70
9640;DHT22;51745;50.872;4.732;2022-07-17T17:34:58;27.20;68.50
9640;DHT22;51745;50.872;4.732;2022-07-17T17:37:47;27.20;68.10
9640;DHT22;51745;50.872;4.732;2022-07-17T17:40:35;27.20;67.60
9640;DHT22;51745;50.872;4.732;2022-07-17T17:43:25;27.70;69.40
9640;DHT22;51745;50.872;4.732;2022-07-17T17:46:23;27.10;68.60
9640;DHT22;51745;50.872;4.732;2022-07-17T17:49:23;27.10;67.90
9640;DHT22;51745;50.872;4.732;2022-07-17T17:52:11;27.10;68.40
9640;DHT22;51745;50.872;4.732;2022-07-17T17:55:02;26.90;66.80
9640;DHT22;51745;50.872;4.732;2022-07-17T17:57:50;25.30;65.40
9640;DHT22;51745;50.872;4.732;2022-07-17T18:00:38;26.60;68.90
9640;DHT22;51745;50.872;4.732;2022-07-17T18:03:28;26.70;71.00
9640;DHT22;51745;50.872;4.732;2022-07-17T18:06:16;26.60;71.20
9640;DHT22;51745;50.872;4.732;2022-07-17T18:09:05;26.60;71.20
9640;DHT22;51745;50.872;4.732;2022-07-17T18:11:52;26.50;69.90
9640;DHT22;51745;50.872;4.732;2022-07-17T18:14:41;26.40;69.30
9640;DHT22;51745;50.872;4.732;2022-07-17T18:17:29;26.30;68.60
9640;DHT22;51745;50.872;4.732;2022-07-17T18:20:29;26.40;70.10
9640;DHT22;51745;50.872;4.732;2022-07-17T18:23:21;26.30;68.20
9640;DHT22;51745;50.872;4.732;2022-07-17T18:26:21;26.00;68.10
9640;DHT22;51745;50.872;4.732;2022-07-17T18:29:12;25.90;69.30
9640;DHT22;51745;50.872;4.732;2022-07-17T18:32:02;25.80;66.90
9640;DHT22;51745;50.872;4.732;2022-07-17T18:34:54;25.50;67.30